sensor_id;sensor_type;location;lat;lon;timestamp;temperature;humidity
68865;DHT22;55898;52.196;4.420;2022-08-03T00:01:34;22.83;71.95
68865;DHT22;55898;52.196;4.420;2022-08-03T00:04:00;22.75;72.24
68865;DHT22;55898;52.196;4.420;2022-08-03T00:06:26;22.74;72.66
68865;DHT22;55898;52.196;4.420;2022-08-03T00:08:51;22.76;72.71
68865;DHT22;55898;52.196;4.420;2022-08-03T00:11:17;22.76;72.71
68865;DHT22;55898;52.196;4.420;2022-08-03T00:13:42;22.71;72.56
68865;DHT22;55898;52.196;4.420;2022-08-03T00:16:08;22.71;72.77
68865;DHT22;55898;52.196;4.420;2022-08-03T00:18:36;22.68;73.07
68865;DHT22;55898;52.196;4.420;2022-08-03T00:21:02;22.68;73.13
68865;DHT22;55898;52.196;4.420;2022-08-03T00:23:28;22.67;73.01
68865;DHT22;55898;52.196;4.420;2022-08-03T00:25:53;22.68;73.10
68865;DHT22;55898;52.196;4.420;2022-08-03T00:28:19;22.65;73.17
68865;DHT22;55898;52.196;4.420;2022-08-03T00:30:45;22.65;73.22
68865;DHT22;55898;52.196;4.420;2022-08-03T00:33:10;22.67;73.25
68865;DHT22;55898;52.196;4.420;2022-08-03T00:35:36;22.61;73.40
68865;DHT22;55898;52.196;4.420;2022-08-03T00:38:01;22.61;73.54
68865;DHT22;55898;52.196;4.420;2022-08-03T00:40:27;22.58;73.60
68865;DHT22;55898;52.196;4.420;2022-08-03T00:42:57;22.55;73.69
68865;DHT22;55898;52.196;4.420;2022-08-03T00:45:25;22.54;73.78
68865;DHT22;55898;52.196;4.420;2022-08-03T00:47:51;22.50;73.99
68865;DHT22;55898;52.196;4.420;2022-08-03T00:50:18;22.53;73.93
68865;DHT22;55898;52.196;4.420;2022-08-03T00:52:46;22.50;73.98
68865;DHT22;55898;52.196;4.420;2022-08-03T00:55:11;22.50;74.10
68865;DHT22;55898;52.196;4.420;2022-08-03T00:57:37;22.47;74.13
68865;DHT22;55898;52.196;4.420;2022-08-03T01:00:05;22.46;74.20
68865;DHT22;55898;52.196;4.420;2022-08-03T01:02:32;22.44;74.36
68865;DHT22;55898;52.196;4.420;2022-08-03T01:04:57;22.46;74.42
68865;DHT22;55898;52.196;4.420;2022-08-03T01:07:35;22.46;74.60
68865;DHT22;55898;52.196;4.420;2022-08-03T01:10:40;22.44;74.58
68865;DHT22;55898;52.196;4.420;2022-08-03T01:13:26;22.39;74.69
68865;DHT22;55898;52.196;4.420;2022-08-03T01:18:37;22.27;75.12
68865;DHT22;55898;52.196;4.420;2022-08-03T01:21:13;22.24;75.20
68865;DHT22;55898;52.196;4.420;2022-08-03T01:30:02;22.27;75.23
68865;DHT22;55898;52.196;4.420;2022-08-03T01:32:47;22.23;75.17
68865;DHT22;55898;52.196;4.420;2022-08-03T01:35:26;22.18;75.27
68865;DHT22;55898;52.196;4.420;2022-08-03T01:38:01;22.21;75.22
68865;DHT22;55898;52.196;4.420;2022-08-03T01:40:30;22.20;75.30
68865;DHT22;55898;52.196;4.420;2022-08-03T01:43:01;22.20;75.18
68865;DHT22;55898;52.196;4.420;2022-08-03T01:45:29;22.17;75.15
68865;DHT22;55898;52.196;4.420;2022-08-03T01:47:56;22.13;75.29
68865;DHT22;55898;52.196;4.420;2022-08-03T01:50:26;22.12;75.44
68865;DHT22;55898;52.196;4.420;2022-08-03T01:52:55;22.07;75.43
68865;DHT22;55898;52.196;4.420;2022-08-03T01:55:24;22.05;75.62
68865;DHT22;55898;52.196;4.420;2022-08-03T01:57:54;22.05;75.52
68865;DHT22;55898;52.196;4.420;2022-08-03T02:00:22;22.00;75.65
68865;DHT22;55898;52.196;4.420;2022-08-03T02:02:51;21.99;75.69
68865;DHT22;55898;52.196;4.420;2022-08-03T02:05:19;21.93;75.71
68865;DHT22;55898;52.196;4.420;2022-08-03T02:07:46;21.93;75.70
68865;DHT22;55898;52.196;4.420;2022-08-03T02:10:15;21.89;75.87
68865;DHT22;55898;52.196;4.420;2022-08-03T02:12:44;21.86;75.91
68865;DHT22;55898;52.196;4.420;2022-08-03T02:15:11;21.81;75.91
68865;DHT22;55898;52.196;4.420;2022-08-03T02:17:41;21.81;76.01
68865;DHT22;55898;52.196;4.420;2022-08-03T02:20:10;21.75;76.10
68865;DHT22;55898;52.196;4.420;2022-08-03T02:22:40;21.72;76.09
68865;DHT22;55898;52.196;4.420;2022-08-03T02:25:11;21.69;76.13
68865;DHT22;55898;52.196;4.420;2022-08-03T02:27:50;21.71;76.07
68865;DHT22;55898;52.196;4.420;2022-08-03T02:30:24;21.65;76.19
68865;DHT22;55898;52.196;4.420;2022-08-03T02:32:56;21.66;76.32
68865;DHT22;55898;52.196;4.420;2022-08-03T02:35:25;21.62;76.25
68865;DHT22;55898;52.196;4.420;2022-08-03T02:38:00;21.59;76.44
68865;DHT22;55898;52.196;4.420;2022-08-03T02:40:28;21.57;76.62
68865;DHT22;55898;52.196;4.420;2022-08-03T02:42:58;21.57;76.65
68865;DHT22;55898;52.196;4.420;2022-08-03T02:45:26;21.57;76.79
68865;DHT22;55898;52.196;4.420;2022-08-03T02:47:57;21.54;76.66
68865;DHT22;55898;52.196;4.420;2022-08-03T02:50:25;21.52;76.74
68865;DHT22;55898;52.196;4.420;2022-08-03T02:52:54;21.49;76.72
68865;DHT22;55898;52.196;4.420;2022-08-03T02:55:22;21.49;76.76
68865;DHT22;55898;52.196;4.420;2022-08-03T02:57:51;21.48;76.76
68865;DHT22;55898;52.196;4.420;2022-08-03T03:00:19;21.44;77.07
68865;DHT22;55898;52.196;4.420;2022-08-03T03:02:45;21.44;76.99
68865;DHT22;55898;52.196;4.420;2022-08-03T03:05:11;21.41;77.18
68865;DHT22;55898;52.196;4.420;2022-08-03T03:07:39;21.41;77.19
68865;DHT22;55898;52.196;4.420;2022-08-03T03:10:06;21.42;77.02
68865;DHT22;55898;52.196;4.420;2022-08-03T03:12:35;21.38;77.02
68865;DHT22;55898;52.196;4.420;2022-08-03T03:15:04;21.41;77.08
68865;DHT22;55898;52.196;4.420;2022-08-03T03:17:32;21.35;76.97
68865;DHT22;55898;52.196;4.420;2022-08-03T03:19:58;21.32;76.91
68865;DHT22;55898;52.196;4.420;2022-08-03T03:22:26;21.28;77.04
68865;DHT22;55898;52.196;4.420;2022-08-03T03:24:53;21.23;77.04
68865;DHT22;55898;52.196;4.420;2022-08-03T03:27:20;21.17;77.25
68865;DHT22;55898;52.196;4.420;2022-08-03T03:29:47;21.17;77.18
68865;DHT22;55898;52.196;4.420;2022-08-03T03:32:13;21.14;77.16
68865;DHT22;55898;52.196;4.420;2022-08-03T03:34:39;21.11;77.21
68865;DHT22;55898;52.196;4.420;2022-08-03T03:37:05;21.10;77.10
68865;DHT22;55898;52.196;4.420;2022-08-03T03:39:30;21.08;77.02
68865;DHT22;55898;52.196;4.420;2022-08-03T03:41:56;21.07;76.95
68865;DHT22;55898;52.196;4.420;2022-08-03T03:44:26;21.06;77.01
68865;DHT22;55898;52.196;4.420;2022-08-03T03:46:52;21.04;77.05
68865;DHT22;55898;52.196;4.420;2022-08-03T03:49:18;20.99;77.11
68865;DHT22;55898;52.196;4.420;2022-08-03T03:51:43;20.99;77.14
68865;DHT22;55898;52.196;4.420;2022-08-03T03:54:09;20.94;77.12
68865;DHT22;55898;52.196;4.420;2022-08-03T03:56:34;20.93;77.12
68865;DHT22;55898;52.196;4.420;2022-08-03T03:59:00;20.93;77.17
68865;DHT22;55898;52.196;4.420;2022-08-03T04:01:25;20.91;77.31
68865;DHT22;55898;52.196;4.420;2022-08-03T04:03:51;20.89;77.32
68865;DHT22;55898;52.196;4.420;2022-08-03T04:06:18;20.84;77.52
68865;DHT22;55898;52.196;4.420;2022-08-03T04:09:02;20.84;77.62
68865;DHT22;55898;52.196;4.420;2022-08-03T04:11:59;20.84;77.72
68865;DHT22;55898;52.196;4.420;2022-08-03T04:14:31;20.83;77.64
68865;DHT22;55898;52.196;4.420;2022-08-03T04:17:01;20.86;77.77
68865;DHT22;55898;52.196;4.420;2022-08-03T04:19:33;20.87;77.81
68865;DHT22;55898;52.196;4.420;2022-08-03T04:22:04;20.89;77.98
68865;DHT22;55898;52.196;4.420;2022-08-03T04:24:43;20.90;78.09
68865;DHT22;55898;52.196;4.420;2022-08-03T04:27:14;20.89;78.10
68865;DHT22;55898;52.196;4.420;2022-08-03T04:29:45;20.90;78.12
68865;DHT22;55898;52.196;4.420;2022-08-03T04:32:12;20.94;78.06
68865;DHT22;55898;52.196;4.420;2022-08-03T04:34:38;20.93;78.04
68865;DHT22;55898;52.196;4.420;2022-08-03T04:37:10;20.97;78.03
68865;DHT22;55898;52.196;4.420;2022-08-03T04:39:37;20.97;78.16
68865;DHT22;55898;52.196;4.420;2022-08-03T04:42:06;20.94;78.52
68865;DHT22;55898;52.196;4.420;2022-08-03T04:44:41;20.97;78.54
68865;DHT22;55898;52.196;4.420;2022-08-03T04:47:08;20.96;78.64
68865;DHT22;55898;52.196;4.420;2022-08-03T04:49:36;21.01;78.48
68865;DHT22;55898;52.196;4.420;2022-08-03T04:52:03;21.03;78.58
68865;DHT22;55898;52.196;4.420;2022-08-03T04:54:29;21.03;78.50
68865;DHT22;55898;52.196;4.420;2022-08-03T04:56:55;21.08;78.46
68865;DHT22;55898;52.196;4.420;2022-08-03T04:59:20;21.06;78.47
68865;DHT22;55898;52.196;4.420;2022-08-03T05:01:46;21.10;78.57
68865;DHT22;55898;52.196;4.420;2022-08-03T05:04:11;21.07;78.67
68865;DHT22;55898;52.196;4.420;2022-08-03T05:06:36;21.10;78.70
68865;DHT22;55898;52.196;4.420;2022-08-03T05:09:02;21.10;78.78
68865;DHT22;55898;52.196;4.420;2022-08-03T05:11:28;21.12;78.99
68865;DHT22;55898;52.196;4.420;2022-08-03T05:13:54;21.17;78.98
68865;DHT22;55898;52.196;4.420;2022-08-03T05:16:19;21.17;79.02
68865;DHT22;55898;52.196;4.420;2022-08-03T05:18:45;21.17;78.96
68865;DHT22;55898;52.196;4.420;2022-08-03T05:21:10;21.17;79.01
68865;DHT22;55898;52.196;4.420;2022-08-03T05:23:39;21.18;79.16
68865;DHT22;55898;52.196;4.420;2022-08-03T05:26:04;21.20;79.27
68865;DHT22;55898;52.196;4.420;2022-08-03T05:28:30;21.23;79.28
68865;DHT22;55898;52.196;4.420;2022-08-03T05:30:56;21.28;79.23
68865;DHT22;55898;52.196;4.420;2022-08-03T05:33:21;21.34;79.16
68865;DHT22;55898;52.196;4.420;2022-08-03T05:35:47;21.41;78.96
68865;DHT22;55898;52.196;4.420;2022-08-03T05:38:12;21.47;79.02
68865;DHT22;55898;52.196;4.420;2022-08-03T05:40:38;21.51;78.90
68865;DHT22;55898;52.196;4.420;2022-08-03T05:43:03;21.54;78.83
68865;DHT22;55898;52.196;4.420;2022-08-03T05:45:29;21.57;78.78
68865;DHT22;55898;52.196;4.420;2022-08-03T05:47:54;21.54;78.71
68865;DHT22;55898;52.196;4.420;2022-08-03T05:50:20;21.54;78.88
68865;DHT22;55898;52.196;4.420;2022-08-03T05:52:45;21.61;79.01
68865;DHT22;55898;52.196;4.420;2022-08-03T05:55:12;21.65;78.96
68865;DHT22;55898;52.196;4.420;2022-08-03T05:57:39;21.62;79.01
68865;DHT22;55898;52.196;4.420;2022-08-03T06:00:07;21.63;79.23
68865;DHT22;55898;52.196;4.420;2022-08-03T06:02:34;21.63;79.35
68865;DHT22;55898;52.196;4.420;2022-08-03T06:05:00;21.68;79.28
68865;DHT22;55898;52.196;4.420;2022-08-03T06:07:26;21.71;79.24
68865;DHT22;55898;52.196;4.420;2022-08-03T06:09:51;21.76;78.96
68865;DHT22;55898;52.196;4.420;2022-08-03T06:12:17;21.79;78.83
68865;DHT22;55898;52.196;4.420;2022-08-03T06:14:42;21.85;78.69
68865;DHT22;55898;52.196;4.420;2022-08-03T06:17:07;21.89;78.70
68865;DHT22;55898;52.196;4.420;2022-08-03T06:19:33;21.92;78.58
68865;DHT22;55898;52.196;4.420;2022-08-03T06:21:59;21.90;78.43
68865;DHT22;55898;52.196;4.420;2022-08-03T06:24:24;21.90;78.65
68865;DHT22;55898;52.196;4.420;2022-08-03T06:26:50;21.88;78.72
68865;DHT22;55898;52.196;4.420;2022-08-03T06:29:15;21.90;78.78
68865;DHT22;55898;52.196;4.420;2022-08-03T06:31:41;22.02;78.57
68865;DHT22;55898;52.196;4.420;2022-08-03T06:34:06;21.96;78.36
68865;DHT22;55898;52.196;4.420;2022-08-03T06:36:32;21.99;78.42
68865;DHT22;55898;52.196;4.420;2022-08-03T06:38:58;22.07;78.32
68865;DHT22;55898;52.196;4.420;2022-08-03T06:41:27;22.16;78.18
68865;DHT22;55898;52.196;4.420;2022-08-03T06:43:53;22.17;78.05
68865;DHT22;55898;52.196;4.420;2022-08-03T06:46:19;22.18;77.68
68865;DHT22;55898;52.196;4.420;2022-08-03T06:48:45;22.26;77.68
68865;DHT22;55898;52.196;4.420;2022-08-03T06:51:10;22.33;77.17
68865;DHT22;55898;52.196;4.420;2022-08-03T06:53:36;22.41;76.81
68865;DHT22;55898;52.196;4.420;2022-08-03T06:56:05;22.40;77.27
68865;DHT22;55898;52.196;4.420;2022-08-03T06:58:31;22.47;76.41
68865;DHT22;55898;52.196;4.420;2022-08-03T07:00:57;22.50;75.84
68865;DHT22;55898;52.196;4.420;2022-08-03T07:03:22;22.44;76.10
68865;DHT22;55898;52.196;4.420;2022-08-03T07:05:48;22.41;76.10
68865;DHT22;55898;52.196;4.420;2022-08-03T07:08:15;22.46;76.28
68865;DHT22;55898;52.196;4.420;2022-08-03T07:10:41;22.55;76.35
68865;DHT22;55898;52.196;4.420;2022-08-03T07:13:07;22.69;75.93
68865;DHT22;55898;52.196;4.420;2022-08-03T07:15:34;22.83;75.81
68865;DHT22;55898;52.196;4.420;2022-08-03T07:17:59;22.98;75.39
68865;DHT22;55898;52.196;4.420;2022-08-03T07:20:25;23.11;74.81
68865;DHT22;55898;52.196;4.420;2022-08-03T07:22:50;23.11;74.06
68865;DHT22;55898;52.196;4.420;2022-08-03T07:25:16;23.15;73.54
68865;DHT22;55898;52.196;4.420;2022-08-03T07:27:46;23.22;73.61
68865;DHT22;55898;52.196;4.420;2022-08-03T07:30:13;23.08;73.58
68865;DHT22;55898;52.196;4.420;2022-08-03T07:32:39;23.06;73.48
68865;DHT22;55898;52.196;4.420;2022-08-03T07:35:05;23.13;73.63
68865;DHT22;55898;52.196;4.420;2022-08-03T07:37:32;23.15;73.73
68865;DHT22;55898;52.196;4.420;2022-08-03T07:40:02;23.23;73.50
68865;DHT22;55898;52.196;4.420;2022-08-03T07:42:29;23.02;73.67
68865;DHT22;55898;52.196;4.420;2022-08-03T07:44:57;22.87;74.22
68865;DHT22;55898;52.196;4.420;2022-08-03T07:47:29;22.92;74.26
68865;DHT22;55898;52.196;4.420;2022-08-03T07:49:55;22.81;74.46
68865;DHT22;55898;52.196;4.420;2022-08-03T07:52:20;22.83;74.81
68865;DHT22;55898;52.196;4.420;2022-08-03T07:55:23;22.90;74.40
68865;DHT22;55898;52.196;4.420;2022-08-03T07:58:10;22.90;74.83
68865;DHT22;55898;52.196;4.420;2022-08-03T08:00:47;22.90;74.25
68865;DHT22;55898;52.196;4.420;2022-08-03T08:03:15;22.92;74.01
68865;DHT22;55898;52.196;4.420;2022-08-03T08:05:40;22.96;74.64
68865;DHT22;55898;52.196;4.420;2022-08-03T08:08:06;23.13;74.27
68865;DHT22;55898;52.196;4.420;2022-08-03T08:10:32;23.18;73.47
68865;DHT22;55898;52.196;4.420;2022-08-03T08:13:01;23.13;73.49
68865;DHT22;55898;52.196;4.420;2022-08-03T08:15:27;23.20;73.48
68865;DHT22;55898;52.196;4.420;2022-08-03T08:17:55;23.15;73.58
68865;DHT22;55898;52.196;4.420;2022-08-03T08:20:31;23.25;73.70
68865;DHT22;55898;52.196;4.420;2022-08-03T08:22:59;23.26;73.77
68865;DHT22;55898;52.196;4.420;2022-08-03T08:25:25;23.36;73.61
68865;DHT22;55898;52.196;4.420;2022-08-03T08:27:51;23.36;73.46
68865;DHT22;55898;52.196;4.420;2022-08-03T08:30:20;23.38;73.31
68865;DHT22;55898;52.196;4.420;2022-08-03T08:32:47;23.50;73.33
68865;DHT22;55898;52.196;4.420;2022-08-03T08:35:12;23.53;73.01
68865;DHT22;55898;52.196;4.420;2022-08-03T08:37:38;23.49;72.54
68865;DHT22;55898;52.196;4.420;2022-08-03T08:40:06;23.41;72.65
68865;DHT22;55898;52.196;4.420;2022-08-03T08:42:32;23.30;72.99
68865;DHT22;55898;52.196;4.420;2022-08-03T08:44:59;23.33;73.08
68865;DHT22;55898;52.196;4.420;2022-08-03T08:47:29;23.39;72.73
68865;DHT22;55898;52.196;4.420;2022-08-03T08:49:57;23.34;72.34
68865;DHT22;55898;52.196;4.420;2022-08-03T08:52:27;23.34;72.17
68865;DHT22;55898;52.196;4.420;2022-08-03T08:54:56;23.30;72.18
68865;DHT22;55898;52.196;4.420;2022-08-03T08:57:34;23.09;72.81
68865;DHT22;55898;52.196;4.420;2022-08-03T09:00:07;23.15;72.46
68865;DHT22;55898;52.196;4.420;2022-08-03T09:02:42;23.18;72.68
68865;DHT22;55898;52.196;4.420;2022-08-03T09:05:10;23.25;72.33
68865;DHT22;55898;52.196;4.420;2022-08-03T09:07:38;23.25;72.46
68865;DHT22;55898;52.196;4.420;2022-08-03T09:10:05;23.32;71.98
68865;DHT22;55898;52.196;4.420;2022-08-03T09:12:37;23.25;71.93
68865;DHT22;55898;52.196;4.420;2022-08-03T09:15:22;23.19;72.55
68865;DHT22;55898;52.196;4.420;2022-08-03T09:17:50;23.25;72.47
68865;DHT22;55898;52.196;4.420;2022-08-03T09:20:16;23.32;72.11
68865;DHT22;55898;52.196;4.420;2022-08-03T09:23:02;23.26;72.42
68865;DHT22;55898;52.196;4.420;2022-08-03T09:25:34;23.30;71.79
68865;DHT22;55898;52.196;4.420;2022-08-03T09:30:33;23.46;71.50
68865;DHT22;55898;52.196;4.420;2022-08-03T09:33:04;23.52;70.50
68865;DHT22;55898;52.196;4.420;2022-08-03T09:35:31;23.36;71.04
68865;DHT22;55898;52.196;4.420;2022-08-03T09:38:12;23.49;70.88
68865;DHT22;55898;52.196;4.420;2022-08-03T09:40:39;23.53;71.16
68865;DHT22;55898;52.196;4.420;2022-08-03T09:43:05;23.52;70.48
68865;DHT22;55898;52.196;4.420;2022-08-03T09:45:36;23.53;70.76
68865;DHT22;55898;52.196;4.420;2022-08-03T09:48:24;23.50;70.84
68865;DHT22;55898;52.196;4.420;2022-08-03T09:50:58;23.60;71.00
68865;DHT22;55898;52.196;4.420;2022-08-03T09:53:24;23.56;71.29
68865;DHT22;55898;52.196;4.420;2022-08-03T09:55:59;23.66;71.09
68865;DHT22;55898;52.196;4.420;2022-08-03T09:58:28;23.56;70.84
68865;DHT22;55898;52.196;4.420;2022-08-03T10:01:01;23.57;70.89
68865;DHT22;55898;52.196;4.420;2022-08-03T10:03:36;23.59;70.74
68865;DHT22;55898;52.196;4.420;2022-08-03T10:06:16;23.69;70.65
68865;DHT22;55898;52.196;4.420;2022-08-03T10:08:48;23.78;70.59
68865;DHT22;55898;52.196;4.420;2022-08-03T10:11:32;23.71;69.37
68865;DHT22;55898;52.196;4.420;2022-08-03T10:14:04;23.73;69.99
68865;DHT22;55898;52.196;4.420;2022-08-03T10:16:35;23.63;70.24
68865;DHT22;55898;52.196;4.420;2022-08-03T10:19:03;23.67;70.69
68865;DHT22;55898;52.196;4.420;2022-08-03T10:21:35;23.69;70.30
68865;DHT22;55898;52.196;4.420;2022-08-03T10:24:06;23.83;70.05
68865;DHT22;55898;52.196;4.420;2022-08-03T10:26:38;23.94;69.32
68865;DHT22;55898;52.196;4.420;2022-08-03T10:29:11;24.01;69.56
68865;DHT22;55898;52.196;4.420;2022-08-03T10:31:43;24.10;69.27
68865;DHT22;55898;52.196;4.420;2022-08-03T10:34:22;24.02;69.70
68865;DHT22;55898;52.196;4.420;2022-08-03T10:36:51;24.04;69.45
68865;DHT22;55898;52.196;4.420;2022-08-03T10:39:21;24.08;69.50
68865;DHT22;55898;52.196;4.420;2022-08-03T10:41:49;24.01;70.30
68865;DHT22;55898;52.196;4.420;2022-08-03T10:44:20;24.01;70.34
68865;DHT22;55898;52.196;4.420;2022-08-03T10:46:47;24.07;69.60
68865;DHT22;55898;52.196;4.420;2022-08-03T10:49:17;24.11;69.59
68865;DHT22;55898;52.196;4.420;2022-08-03T10:51:44;24.22;69.60
68865;DHT22;55898;52.196;4.420;2022-08-03T10:54:41;24.38;68.79
68865;DHT22;55898;52.196;4.420;2022-08-03T10:57:52;24.45;67.93
68865;DHT22;55898;52.196;4.420;2022-08-03T11:00:20;24.35;67.93
68865;DHT22;55898;52.196;4.420;2022-08-03T11:05:42;24.51;68.66
68865;DHT22;55898;52.196;4.420;2022-08-03T11:08:27;24.58;68.69
68865;DHT22;55898;52.196;4.420;2022-08-03T11:11:01;24.75;67.75
68865;DHT22;55898;52.196;4.420;2022-08-03T11:13:30;24.82;67.96
68865;DHT22;55898;52.196;4.420;2022-08-03T11:16:00;24.99;67.00
68865;DHT22;55898;52.196;4.420;2022-08-03T11:18:27;25.23;66.29
68865;DHT22;55898;52.196;4.420;2022-08-03T11:20:55;25.42;65.22
68865;DHT22;55898;52.196;4.420;2022-08-03T11:23:40;25.42;65.45
68865;DHT22;55898;52.196;4.420;2022-08-03T11:26:19;25.49;65.11
68865;DHT22;55898;52.196;4.420;2022-08-03T11:28:48;25.21;64.76
68865;DHT22;55898;52.196;4.420;2022-08-03T11:34:08;25.47;64.91
68865;DHT22;55898;52.196;4.420;2022-08-03T11:39:40;25.74;62.51
68865;DHT22;55898;52.196;4.420;2022-08-03T11:44:48;27.11;59.59
68865;DHT22;55898;52.196;4.420;2022-08-03T11:47:14;28.35;56.87
68865;DHT22;55898;52.196;4.420;2022-08-03T11:52:21;29.69;52.84
68865;DHT22;55898;52.196;4.420;2022-08-03T11:54:51;30.60;50.08
68865;DHT22;55898;52.196;4.420;2022-08-03T11:57:31;31.38;47.88
68865;DHT22;55898;52.196;4.420;2022-08-03T11:59:56;31.98;46.82
68865;DHT22;55898;52.196;4.420;2022-08-03T12:02:22;32.35;45.99
68865;DHT22;55898;52.196;4.420;2022-08-03T12:04:58;32.87;44.50
68865;DHT22;55898;52.196;4.420;2022-08-03T12:07:28;33.21;44.44
68865;DHT22;55898;52.196;4.420;2022-08-03T12:10:12;32.98;43.91
68865;DHT22;55898;52.196;4.420;2022-08-03T12:12:39;33.17;44.06
68865;DHT22;55898;52.196;4.420;2022-08-03T12:15:06;33.51;43.97
68865;DHT22;55898;52.196;4.420;2022-08-03T12:17:37;33.55;43.05
68865;DHT22;55898;52.196;4.420;2022-08-03T12:20:05;33.85;42.24
68865;DHT22;55898;52.196;4.420;2022-08-03T12:22:37;34.09;41.99
68865;DHT22;55898;52.196;4.420;2022-08-03T12:25:06;33.89;42.99
68865;DHT22;55898;52.196;4.420;2022-08-03T12:27:32;34.15;42.00
68865;DHT22;55898;52.196;4.420;2022-08-03T12:29:59;34.01;42.44
68865;DHT22;55898;52.196;4.420;2022-08-03T12:32:30;33.37;42.84
68865;DHT22;55898;52.196;4.420;2022-08-03T12:34:57;33.16;43.91
68865;DHT22;55898;52.196;4.420;2022-08-03T12:37:29;33.04;43.93
68865;DHT22;55898;52.196;4.420;2022-08-03T12:39:59;33.37;43.20
68865;DHT22;55898;52.196;4.420;2022-08-03T12:42:43;33.24;43.55
68865;DHT22;55898;52.196;4.420;2022-08-03T12:45:24;33.48;43.06
68865;DHT22;55898;52.196;4.420;2022-08-03T12:47:55;33.60;42.56
68865;DHT22;55898;52.196;4.420;2022-08-03T12:52:51;34.26;42.21
68865;DHT22;55898;52.196;4.420;2022-08-03T12:55:21;34.29;42.20
68865;DHT22;55898;52.196;4.420;2022-08-03T12:57:47;34.57;41.85
68865;DHT22;55898;52.196;4.420;2022-08-03T13:00:15;34.80;40.97
68865;DHT22;55898;52.196;4.420;2022-08-03T13:02:41;35.32;39.80
68865;DHT22;55898;52.196;4.420;2022-08-03T13:05:10;35.52;38.73
68865;DHT22;55898;52.196;4.420;2022-08-03T13:07:44;35.61;39.84
68865;DHT22;55898;52.196;4.420;2022-08-03T13:10:11;36.01;37.80
68865;DHT22;55898;52.196;4.420;2022-08-03T13:12:50;36.28;37.44
68865;DHT22;55898;52.196;4.420;2022-08-03T13:15:17;36.67;37.21
68865;DHT22;55898;52.196;4.420;2022-08-03T13:17:43;36.81;36.63
68865;DHT22;55898;52.196;4.420;2022-08-03T13:20:09;36.67;36.31
68865;DHT22;55898;52.196;4.420;2022-08-03T13:22:35;36.89;36.27
68865;DHT22;55898;52.196;4.420;2022-08-03T13:25:02;36.95;36.20
68865;DHT22;55898;52.196;4.420;2022-08-03T13:27:29;37.00;36.36
68865;DHT22;55898;52.196;4.420;2022-08-03T13:29:55;35.78;37.15
68865;DHT22;55898;52.196;4.420;2022-08-03T13:32:22;35.04;38.18
68865;DHT22;55898;52.196;4.420;2022-08-03T13:37:14;35.78;37.35
68865;DHT22;55898;52.196;4.420;2022-08-03T13:39:40;36.33;36.97
68865;DHT22;55898;52.196;4.420;2022-08-03T13:42:06;36.99;36.22
68865;DHT22;55898;52.196;4.420;2022-08-03T13:44:33;37.30;34.82
68865;DHT22;55898;52.196;4.420;2022-08-03T13:46:58;37.18;35.57
68865;DHT22;55898;52.196;4.420;2022-08-03T13:49:28;37.03;35.83
68865;DHT22;55898;52.196;4.420;2022-08-03T13:51:54;37.49;35.28
68865;DHT22;55898;52.196;4.420;2022-08-03T13:54:21;37.70;33.53
68865;DHT22;55898;52.196;4.420;2022-08-03T13:56:46;38.39;33.65
68865;DHT22;55898;52.196;4.420;2022-08-03T13:59:21;39.00;33.54
68865;DHT22;55898;52.196;4.420;2022-08-03T14:01:48;39.31;32.83
68865;DHT22;55898;52.196;4.420;2022-08-03T14:04:14;39.28;32.61
68865;DHT22;55898;52.196;4.420;2022-08-03T14:06:40;39.41;32.67
68865;DHT22;55898;52.196;4.420;2022-08-03T14:09:05;39.57;32.71
68865;DHT22;55898;52.196;4.420;2022-08-03T14:11:31;39.58;32.68
68865;DHT22;55898;52.196;4.420;2022-08-03T14:13:56;39.43;32.81
68865;DHT22;55898;52.196;4.420;2022-08-03T14:16:22;39.07;33.38
68865;DHT22;55898;52.196;4.420;2022-08-03T14:18:47;39.03;33.69
68865;DHT22;55898;52.196;4.420;2022-08-03T14:21:13;38.60;34.38
68865;DHT22;55898;52.196;4.420;2022-08-03T14:23:38;38.10;34.50
68865;DHT22;55898;52.196;4.420;2022-08-03T14:26:06;37.85;34.96
68865;DHT22;55898;52.196;4.420;2022-08-03T14:28:32;38.04;35.40
68865;DHT22;55898;52.196;4.420;2022-08-03T14:30:58;37.97;35.07
68865;DHT22;55898;52.196;4.420;2022-08-03T14:33:23;37.90;35.06
68865;DHT22;55898;52.196;4.420;2022-08-03T14:35:50;37.97;35.30
68865;DHT22;55898;52.196;4.420;2022-08-03T14:38:16;37.77;35.76
68865;DHT22;55898;52.196;4.420;2022-08-03T14:40:42;37.42;35.74
68865;DHT22;55898;52.196;4.420;2022-08-03T14:43:08;37.14;36.35
68865;DHT22;55898;52.196;4.420;2022-08-03T14:45:33;36.89;36.42
68865;DHT22;55898;52.196;4.420;2022-08-03T14:47:59;36.85;37.14
68865;DHT22;55898;52.196;4.420;2022-08-03T14:50:25;36.94;36.71
68865;DHT22;55898;52.196;4.420;2022-08-03T14:52:53;36.63;36.78
68865;DHT22;55898;52.196;4.420;2022-08-03T14:55:18;36.26;37.57
68865;DHT22;55898;52.196;4.420;2022-08-03T14:57:44;36.26;37.08
68865;DHT22;55898;52.196;4.420;2022-08-03T15:00:10;36.20;38.10
68865;DHT22;55898;52.196;4.420;2022-08-03T15:02:35;36.11;38.22
68865;DHT22;55898;52.196;4.420;2022-08-03T15:05:01;35.86;38.22
68865;DHT22;55898;52.196;4.420;2022-08-03T15:07:27;35.96;38.60
68865;DHT22;55898;52.196;4.420;2022-08-03T15:09:52;35.90;37.90
68865;DHT22;55898;52.196;4.420;2022-08-03T15:12:18;35.62;38.54
68865;DHT22;55898;52.196;4.420;2022-08-03T15:14:43;35.38;38.07
68865;DHT22;55898;52.196;4.420;2022-08-03T15:17:08;35.21;38.69
68865;DHT22;55898;52.196;4.420;2022-08-03T15:19:34;34.98;36.83
68865;DHT22;55898;52.196;4.420;2022-08-03T15:22:00;34.84;37.74
68865;DHT22;55898;52.196;4.420;2022-08-03T15:24:25;34.67;36.64
68865;DHT22;55898;52.196;4.420;2022-08-03T15:26:51;34.68;37.73
68865;DHT22;55898;52.196;4.420;2022-08-03T15:29:17;34.49;37.88
68865;DHT22;55898;52.196;4.420;2022-08-03T15:31:43;34.49;38.38
68865;DHT22;55898;52.196;4.420;2022-08-03T15:34:08;34.33;38.33
68865;DHT22;55898;52.196;4.420;2022-08-03T15:36:35;34.60;37.85
68865;DHT22;55898;52.196;4.420;2022-08-03T15:39:01;34.50;36.19
68865;DHT22;55898;52.196;4.420;2022-08-03T15:41:27;34.59;37.11
68865;DHT22;55898;52.196;4.420;2022-08-03T15:43:52;34.74;37.02
68865;DHT22;55898;52.196;4.420;2022-08-03T15:46:18;34.82;36.19
68865;DHT22;55898;52.196;4.420;2022-08-03T15:48:44;34.70;36.69
68865;DHT22;55898;52.196;4.420;2022-08-03T15:51:10;34.66;36.95
68865;DHT22;55898;52.196;4.420;2022-08-03T15:53:37;34.43;36.62
68865;DHT22;55898;52.196;4.420;2022-08-03T15:56:04;33.99;36.36
68865;DHT22;55898;52.196;4.420;2022-08-03T15:58:32;33.48;37.89
68865;DHT22;55898;52.196;4.420;2022-08-03T16:01:01;33.24;39.50
68865;DHT22;55898;52.196;4.420;2022-08-03T16:03:27;33.02;39.79
68865;DHT22;55898;52.196;4.420;2022-08-03T16:06:02;32.63;41.00
68865;DHT22;55898;52.196;4.420;2022-08-03T16:08:29;32.34;41.70
68865;DHT22;55898;52.196;4.420;2022-08-03T16:10:55;32.05;42.54